sensor_id;sensor_type;location;lat;lon;timestamp;P1;durP1;ratioP1;P2;durP2;ratioP2
10977;SDS011;5542;48.272;10.794;2023-07-13T00:02:16;3.40;;;2.88;;
10977;SDS011;5542;48.272;10.794;2023-07-13T00:04:43;3.75;;;3.45;;
10977;SDS011;5542;48.272;10.794;2023-07-13T00:07:09;3.10;;;2.90;;
10977;SDS011;5542;48.272;10.794;2023-07-13T00:09:38;2.70;;;2.50;;
10977;SDS011;5542;48.272;10.794;2023-07-13T00:12:19;2.80;;;2.60;;
10977;SDS011;5542;48.272;10.794;2023-07-13T00:14:48;3.17;;;2.97;;
10977;SDS011;5542;48.272;10.794;2023-07-13T00:17:16;3.13;;;2.83;;
10977;SDS011;5542;48.272;10.794;2023-07-13T00:19:43;2.88;;;2.63;;
10977;SDS011;5542;48.272;10.794;2023-07-13T00:22:10;3.30;;;3.00;;
10977;SDS011;5542;48.272;10.794;2023-07-13T00:24:36;2.95;;;2.75;;
10977;SDS011;5542;48.272;10.794;2023-07-13T00:27:06;2.80;;;2.60;;
10977;SDS011;5542;48.272;10.794;2023-07-13T00:29:33;3.23;;;2.97;;
10977;SDS011;5542;48.272;10.794;2023-07-13T00:32:00;2.90;;;2.70;;
10977;SDS011;5542;48.272;10.794;2023-07-13T00:34:27;3.17;;;2.70;;
10977;SDS011;5542;48.272;10.794;2023-07-13T00:36:54;3.53;;;3.20;;
10977;SDS011;5542;48.272;10.794;2023-07-13T00:39:20;3.25;;;3.05;;
10977;SDS011;5542;48.272;10.794;2023-07-13T00:41:47;3.20;;;2.90;;
10977;SDS011;5542;48.272;10.794;2023-07-13T00:44:14;3.00;;;2.70;;
10977;SDS011;5542;48.272;10.794;2023-07-13T00:46:42;2.80;;;2.60;;
10977;SDS011;5542;48.272;10.794;2023-07-13T00:49:09;3.28;;;3.08;;
10977;SDS011;5542;48.272;10.794;2023-07-13T00:51:53;2.97;;;2.78;;
10977;SDS011;5542;48.272;10.794;2023-07-13T00:54:24;2.90;;;2.70;;
10977;SDS011;5542;48.272;10.794;2023-07-13T00:56:54;3.95;;;3.50;;
10977;SDS011;5542;48.272;10.794;2023-07-13T00:59:25;2.58;;;2.42;;
10977;SDS011;5542;48.272;10.794;2023-07-13T01:01:52;3.25;;;2.95;;
10977;SDS011;5542;48.272;10.794;2023-07-13T01:04:19;2.72;;;2.53;;
10977;SDS011;5542;48.272;10.794;2023-07-13T01:06:47;3.85;;;3.22;;
10977;SDS011;5542;48.272;10.794;2023-07-13T01:09:14;3.10;;;2.90;;
10977;SDS011;5542;48.272;10.794;2023-07-13T01:11:41;3.55;;;3.25;;
10977;SDS011;5542;48.272;10.794;2023-07-13T01:14:10;3.00;;;2.80;;
10977;SDS011;5542;48.272;10.794;2023-07-13T01:16:37;2.97;;;2.67;;
10977;SDS011;5542;48.272;10.794;2023-07-13T01:19:07;2.88;;;2.67;;
10977;SDS011;5542;48.272;10.794;2023-07-13T01:21:43;2.78;;;2.58;;
10977;SDS011;5542;48.272;10.794;2023-07-13T01:24:15;2.85;;;2.55;;
10977;SDS011;5542;48.272;10.794;2023-07-13T01:26:42;2.13;;;2.03;;
10977;SDS011;5542;48.272;10.794;2023-07-13T01:29:08;2.63;;;2.43;;
10977;SDS011;5542;48.272;10.794;2023-07-13T01:31:35;3.17;;;2.92;;
10977;SDS011;5542;48.272;10.794;2023-07-13T01:34:01;2.97;;;2.67;;
10977;SDS011;5542;48.272;10.794;2023-07-13T01:36:28;3.85;;;3.15;;
10977;SDS011;5542;48.272;10.794;2023-07-13T01:38:56;3.97;;;3.58;;
10977;SDS011;5542;48.272;10.794;2023-07-13T01:41:22;3.80;;;3.40;;
10977;SDS011;5542;48.272;10.794;2023-07-13T01:43:49;3.38;;;3.08;;
10977;SDS011;5542;48.272;10.794;2023-07-13T01:46:15;3.95;;;3.28;;
10977;SDS011;5542;48.272;10.794;2023-07-13T01:48:42;3.25;;;3.05;;
10977;SDS011;5542;48.272;10.794;2023-07-13T01:51:08;3.70;;;3.40;;
10977;SDS011;5542;48.272;10.794;2023-07-13T01:53:35;5.10;;;3.70;;
10977;SDS011;5542;48.272;10.794;2023-07-13T01:56:03;3.83;;;3.47;;
10977;SDS011;5542;48.272;10.794;2023-07-13T01:58:30;3.97;;;3.67;;
10977;SDS011;5542;48.272;10.794;2023-07-13T02:00:56;3.22;;;3.00;;
10977;SDS011;5542;48.272;10.794;2023-07-13T02:03:23;2.90;;;2.70;;
10977;SDS011;5542;48.272;10.794;2023-07-13T02:05:49;3.53;;;3.23;;
10977;SDS011;5542;48.272;10.794;2023-07-13T02:08:16;3.40;;;3.10;;
10977;SDS011;5542;48.272;10.794;2023-07-13T02:10:42;3.38;;;2.88;;
10977;SDS011;5542;48.272;10.794;2023-07-13T02:13:10;2.70;;;2.50;;
10977;SDS011;5542;48.272;10.794;2023-07-13T02:15:38;2.67;;;2.55;;
10977;SDS011;5542;48.272;10.794;2023-07-13T02:18:05;4.55;;;3.00;;
10977;SDS011;5542;48.272;10.794;2023-07-13T02:20:32;2.88;;;2.67;;
10977;SDS011;5542;48.272;10.794;2023-07-13T02:22:58;2.78;;;2.58;;
10977;SDS011;5542;48.272;10.794;2023-07-13T02:25:25;3.60;;;3.00;;
10977;SDS011;5542;48.272;10.794;2023-07-13T02:27:52;3.20;;;2.90;;
10977;SDS011;5542;48.272;10.794;2023-07-13T02:30:20;2.80;;;2.65;;
10977;SDS011;5542;48.272;10.794;2023-07-13T02:32:49;2.10;;;2.00;;
10977;SDS011;5542;48.272;10.794;2023-07-13T02:35:16;1.85;;;1.75;;
10977;SDS011;5542;48.272;10.794;2023-07-13T02:37:42;2.30;;;2.10;;
10977;SDS011;5542;48.272;10.794;2023-07-13T02:40:09;2.47;;;2.03;;
10977;SDS011;5542;48.272;10.794;2023-07-13T02:42:36;2.40;;;2.25;;
10977;SDS011;5542;48.272;10.794;2023-07-13T02:45:02;2.33;;;2.20;;
10977;SDS011;5542;48.272;10.794;2023-07-13T02:47:31;2.30;;;2.20;;
10977;SDS011;5542;48.272;10.794;2023-07-13T02:49:58;3.00;;;2.30;;
10977;SDS011;5542;48.272;10.794;2023-07-13T02:52:24;2.15;;;2.05;;
10977;SDS011;5542;48.272;10.794;2023-07-13T02:54:51;2.20;;;2.00;;
10977;SDS011;5542;48.272;10.794;2023-07-13T02:57:18;2.15;;;1.95;;
10977;SDS011;5542;48.272;10.794;2023-07-13T02:59:44;2.10;;;2.00;;
10977;SDS011;5542;48.272;10.794;2023-07-13T03:02:11;1.75;;;1.65;;
10977;SDS011;5542;48.272;10.794;2023-07-13T03:04:39;1.80;;;1.70;;
10977;SDS011;5542;48.272;10.794;2023-07-13T03:07:06;1.95;;;1.75;;
10977;SDS011;5542;48.272;10.794;2023-07-13T03:09:33;2.40;;;2.20;;
10977;SDS011;5542;48.272;10.794;2023-07-13T03:12:00;2.03;;;1.92;;
10977;SDS011;5542;48.272;10.794;2023-07-13T03:14:27;2.40;;;2.00;;
10977;SDS011;5542;48.272;10.794;2023-07-13T03:16:55;2.42;;;2.03;;
10977;SDS011;5542;48.272;10.794;2023-07-13T03:19:21;1.65;;;1.55;;
10977;SDS011;5542;48.272;10.794;2023-07-13T03:21:49;1.75;;;1.65;;
10977;SDS011;5542;48.272;10.794;2023-07-13T03:24:16;1.90;;;1.80;;
10977;SDS011;5542;48.272;10.794;2023-07-13T03:26:42;1.95;;;1.85;;
10977;SDS011;5542;48.272;10.794;2023-07-13T03:29:09;2.05;;;1.95;;
10977;SDS011;5542;48.272;10.794;2023-07-13T03:31:36;1.83;;;1.73;;
10977;SDS011;5542;48.272;10.794;2023-07-13T03:34:03;2.28;;;2.08;;
10977;SDS011;5542;48.272;10.794;2023-07-13T03:36:30;1.70;;;1.60;;
10977;SDS011;5542;48.272;10.794;2023-07-13T03:39:00;2.10;;;2.00;;
10977;SDS011;5542;48.272;10.794;2023-07-13T03:41:28;1.80;;;1.70;;
10977;SDS011;5542;48.272;10.794;2023-07-13T03:43:55;2.00;;;1.90;;
10977;SDS011;5542;48.272;10.794;2023-07-13T03:46:22;1.25;;;1.25;;
10977;SDS011;5542;48.272;10.794;2023-07-13T03:48:48;1.80;;;1.60;;
10977;SDS011;5542;48.272;10.794;2023-07-13T03:51:16;1.77;;;1.67;;
10977;SDS011;5542;48.272;10.794;2023-07-13T03:53:44;1.15;;;1.15;;
10977;SDS011;5542;48.272;10.794;2023-07-13T03:56:13;1.60;;;1.50;;
10977;SDS011;5542;48.272;10.794;2023-07-13T03:58:41;1.63;;;1.52;;
10977;SDS011;5542;48.272;10.794;2023-07-13T04:01:09;1.73;;;1.63;;
10977;SDS011;5542;48.272;10.794;2023-07-13T04:03:37;1.20;;;1.20;;
10977;SDS011;5542;48.272;10.794;2023-07-13T04:06:04;1.65;;;1.55;;
10977;SDS011;5542;48.272;10.794;2023-07-13T04:08:33;1.73;;;1.27;;
10977;SDS011;5542;48.272;10.794;2023-07-13T04:11:00;1.90;;;1.80;;
10977;SDS011;5542;48.272;10.794;2023-07-13T04:13:29;1.88;;;1.77;;
10977;SDS011;5542;48.272;10.794;2023-07-13T04:15:56;1.23;;;1.23;;
10977;SDS011;5542;48.272;10.794;2023-07-13T04:18:22;1.25;;;1.20;;
10977;SDS011;5542;48.272;10.794;2023-07-13T04:20:49;1.02;;;1.02;;
10977;SDS011;5542;48.272;10.794;2023-07-13T04:23:16;1.63;;;1.52;;
10977;SDS011;5542;48.272;10.794;2023-07-13T04:25:43;2.03;;;1.90;;
10977;SDS011;5542;48.272;10.794;2023-07-13T04:28:10;1.50;;;1.40;;
10977;SDS011;5542;48.272;10.794;2023-07-13T04:30:38;1.55;;;1.45;;
10977;SDS011;5542;48.272;10.794;2023-07-13T04:33:05;1.30;;;1.30;;
10977;SDS011;5542;48.272;10.794;2023-07-13T04:35:31;1.33;;;1.23;;
10977;SDS011;5542;48.272;10.794;2023-07-13T04:37:58;2.00;;;1.90;;
10977;SDS011;5542;48.272;10.794;2023-07-13T04:40:25;1.37;;;1.37;;
10977;SDS011;5542;48.272;10.794;2023-07-13T04:42:53;1.75;;;1.65;;
10977;SDS011;5542;48.272;10.794;2023-07-13T04:45:19;2.40;;;2.20;;
10977;SDS011;5542;48.272;10.794;2023-07-13T04:47:47;2.33;;;2.20;;
10977;SDS011;5542;48.272;10.794;2023-07-13T04:50:14;2.07;;;1.87;;
10977;SDS011;5542;48.272;10.794;2023-07-13T04:52:44;1.90;;;1.80;;
10977;SDS011;5542;48.272;10.794;2023-07-13T04:55:11;1.65;;;1.55;;
10977;SDS011;5542;48.272;10.794;2023-07-13T04:57:38;1.73;;;1.63;;
10977;SDS011;5542;48.272;10.794;2023-07-13T05:00:05;2.08;;;1.90;;
10977;SDS011;5542;48.272;10.794;2023-07-13T05:02:33;1.63;;;1.52;;
10977;SDS011;5542;48.272;10.794;2023-07-13T05:05:01;1.80;;;1.70;;
10977;SDS011;5542;48.272;10.794;2023-07-13T05:07:28;1.83;;;1.73;;
10977;SDS011;5542;48.272;10.794;2023-07-13T05:09:55;1.23;;;1.23;;
10977;SDS011;5542;48.272;10.794;2023-07-13T05:12:22;1.40;;;1.30;;
10977;SDS011;5542;48.272;10.794;2023-07-13T05:14:48;1.40;;;1.30;;
10977;SDS011;5542;48.272;10.794;2023-07-13T05:17:15;1.10;;;1.10;;
10977;SDS011;5542;48.272;10.794;2023-07-13T05:19:41;1.50;;;1.40;;
10977;SDS011;5542;48.272;10.794;2023-07-13T05:22:09;2.53;;;1.80;;
10977;SDS011;5542;48.272;10.794;2023-07-13T05:24:36;1.65;;;1.55;;
10977;SDS011;5542;48.272;10.794;2023-07-13T05:27:02;1.60;;;1.52;;
10977;SDS011;5542;48.272;10.794;2023-07-13T05:29:29;2.10;;;2.00;;
10977;SDS011;5542;48.272;10.794;2023-07-13T05:31:56;1.70;;;1.60;;
10977;SDS011;5542;48.272;10.794;2023-07-13T05:34:22;1.73;;;1.63;;
10977;SDS011;5542;48.272;10.794;2023-07-13T05:36:49;1.45;;;1.35;;
10977;SDS011;5542;48.272;10.794;2023-07-13T05:39:17;2.00;;;1.90;;
10977;SDS011;5542;48.272;10.794;2023-07-13T05:41:44;2.00;;;1.80;;
10977;SDS011;5542;48.272;10.794;2023-07-13T05:44:10;1.83;;;1.73;;
10977;SDS011;5542;48.272;10.794;2023-07-13T05:46:37;2.58;;;2.17;;
10977;SDS011;5542;48.272;10.794;2023-07-13T05:49:03;2.03;;;1.92;;
10977;SDS011;5542;48.272;10.794;2023-07-13T05:51:30;1.70;;;1.60;;
10977;SDS011;5542;48.272;10.794;2023-07-13T05:53:56;2.50;;;2.30;;
10977;SDS011;5542;48.272;10.794;2023-07-13T05:56:24;1.70;;;1.60;;
10977;SDS011;5542;48.272;10.794;2023-07-13T05:58:51;1.65;;;1.55;;
10977;SDS011;5542;48.272;10.794;2023-07-13T06:01:18;1.90;;;1.80;;
10977;SDS011;5542;48.272;10.794;2023-07-13T06:03:45;2.20;;;2.10;;
10977;SDS011;5542;48.272;10.794;2023-07-13T06:06:12;1.85;;;1.75;;
10977;SDS011;5542;48.272;10.794;2023-07-13T06:08:39;2.17;;;2.08;;
10977;SDS011;5542;48.272;10.794;2023-07-13T06:11:06;1.80;;;1.70;;
10977;SDS011;5542;48.272;10.794;2023-07-13T06:13:35;2.20;;;2.10;;
10977;SDS011;5542;48.272;10.794;2023-07-13T06:16:02;2.30;;;2.10;;
10977;SDS011;5542;48.272;10.794;2023-07-13T06:18:30;2.38;;;2.20;;
10977;SDS011;5542;48.272;10.794;2023-07-13T06:20:57;2.70;;;2.50;;
10977;SDS011;5542;48.272;10.794;2023-07-13T06:23:23;2.60;;;2.40;;
10977;SDS011;5542;48.272;10.794;2023-07-13T06:25:50;2.17;;;2.08;;
10977;SDS011;5542;48.272;10.794;2023-07-13T06:28:17;1.92;;;1.83;;
10977;SDS011;5542;48.272;10.794;2023-07-13T06:30:44;1.95;;;1.67;;
10977;SDS011;5542;48.272;10.794;2023-07-13T06:33:11;1.48;;;1.38;;
10977;SDS011;5542;48.272;10.794;2023-07-13T06:35:37;1.90;;;1.80;;
10977;SDS011;5542;48.272;10.794;2023-07-13T06:38:04;1.60;;;1.50;;
10977;SDS011;5542;48.272;10.794;2023-07-13T06:40:31;2.13;;;1.95;;
10977;SDS011;5542;48.272;10.794;2023-07-13T06:42:57;1.40;;;1.30;;
10977;SDS011;5542;48.272;10.794;2023-07-13T06:45:24;1.70;;;1.60;;
10977;SDS011;5542;48.272;10.794;2023-07-13T06:47:52;1.90;;;1.80;;
10977;SDS011;5542;48.272;10.794;2023-07-13T06:50:18;2.67;;;2.17;;
10977;SDS011;5542;48.272;10.794;2023-07-13T06:52:45;2.03;;;1.92;;
10977;SDS011;5542;48.272;10.794;2023-07-13T06:55:11;2.05;;;1.85;;
10977;SDS011;5542;48.272;10.794;2023-07-13T06:57:38;1.90;;;1.38;;
10977;SDS011;5542;48.272;10.794;2023-07-13T07:00:05;2.17;;;2.03;;
10977;SDS011;5542;48.272;10.794;2023-07-13T07:02:34;1.65;;;1.55;;
10977;SDS011;5542;48.272;10.794;2023-07-13T07:05:03;2.42;;;1.70;;
10977;SDS011;5542;48.272;10.794;2023-07-13T07:07:29;1.92;;;1.60;;
10977;SDS011;5542;48.272;10.794;2023-07-13T07:09:56;1.80;;;1.60;;
10977;SDS011;5542;48.272;10.794;2023-07-13T07:12:22;1.90;;;1.80;;
10977;SDS011;5542;48.272;10.794;2023-07-13T07:14:49;1.60;;;1.50;;
10977;SDS011;5542;48.272;10.794;2023-07-13T07:17:15;1.45;;;1.35;;
10977;SDS011;5542;48.272;10.794;2023-07-13T07:19:42;1.55;;;1.45;;
10977;SDS011;5542;48.272;10.794;2023-07-13T07:22:10;2.10;;;1.90;;
10977;SDS011;5542;48.272;10.794;2023-07-13T07:24:36;1.67;;;1.58;;
10977;SDS011;5542;48.272;10.794;2023-07-13T07:27:03;1.40;;;1.30;;
10977;SDS011;5542;48.272;10.794;2023-07-13T07:29:30;1.65;;;1.50;;
10977;SDS011;5542;48.272;10.794;2023-07-13T07:31:58;1.50;;;1.40;;
10977;SDS011;5542;48.272;10.794;2023-07-13T07:34:24;2.10;;;1.80;;
10977;SDS011;5542;48.272;10.794;2023-07-13T07:36:51;2.58;;;2.00;;
10977;SDS011;5542;48.272;10.794;2023-07-13T07:39:21;2.30;;;1.77;;
10977;SDS011;5542;48.272;10.794;2023-07-13T07:41:47;1.50;;;1.40;;
10977;SDS011;5542;48.272;10.794;2023-07-13T07:44:14;1.77;;;1.60;;
10977;SDS011;5542;48.272;10.794;2023-07-13T07:46:40;2.00;;;1.83;;
10977;SDS011;5542;48.272;10.794;2023-07-13T07:49:07;1.42;;;1.27;;
10977;SDS011;5542;48.272;10.794;2023-07-13T07:51:33;2.25;;;1.85;;
10977;SDS011;5542;48.272;10.794;2023-07-13T07:54:00;3.30;;;1.73;;
10977;SDS011;5542;48.272;10.794;2023-07-13T07:56:28;1.65;;;1.55;;
10977;SDS011;5542;48.272;10.794;2023-07-13T07:58:54;1.80;;;1.60;;
10977;SDS011;5542;48.272;10.794;2023-07-13T08:01:21;1.90;;;1.80;;
10977;SDS011;5542;48.272;10.794;2023-07-13T08:03:48;1.88;;;1.77;;
10977;SDS011;5542;48.272;10.794;2023-07-13T08:06:14;1.50;;;1.40;;
10977;SDS011;5542;48.272;10.794;2023-07-13T08:08:41;1.75;;;1.65;;
10977;SDS011;5542;48.272;10.794;2023-07-13T08:11:08;2.50;;;2.30;;
10977;SDS011;5542;48.272;10.794;2023-07-13T08:13:37;2.58;;;2.17;;
10977;SDS011;5542;48.272;10.794;2023-07-13T08:16:04;2.83;;;2.03;;
10977;SDS011;5542;48.272;10.794;2023-07-13T08:18:32;2.20;;;1.90;;
10977;SDS011;5542;48.272;10.794;2023-07-13T08:20:58;2.23;;;2.07;;
10977;SDS011;5542;48.272;10.794;2023-07-13T08:23:29;1.80;;;1.70;;
10977;SDS011;5542;48.272;10.794;2023-07-13T08:25:57;1.80;;;1.70;;
10977;SDS011;5542;48.272;10.794;2023-07-13T08:28:26;2.23;;;2.13;;
10977;SDS011;5542;48.272;10.794;2023-07-13T08:30:55;3.13;;;2.15;;
10977;SDS011;5542;48.272;10.794;2023-07-13T08:33:26;2.28;;;2.08;;
10977;SDS011;5542;48.272;10.794;2023-07-13T08:35:52;2.80;;;2.30;;
10977;SDS011;5542;48.272;10.794;2023-07-13T08:38:19;3.05;;;1.98;;
10977;SDS011;5542;48.272;10.794;2023-07-13T08:40:48;2.80;;;2.00;;
10977;SDS011;5542;48.272;10.794;2023-07-13T08:43:18;2.25;;;1.98;;
10977;SDS011;5542;48.272;10.794;2023-07-13T08:45:50;1.63;;;1.52;;
10977;SDS011;5542;48.272;10.794;2023-07-13T08:48:23;2.30;;;1.95;;
10977;SDS011;5542;48.272;10.794;2023-07-13T08:50:55;1.75;;;1.65;;
10977;SDS011;5542;48.272;10.794;2023-07-13T08:53:24;1.83;;;1.53;;
10977;SDS011;5542;48.272;10.794;2023-07-13T08:55:59;1.85;;;1.75;;
10977;SDS011;5542;48.272;10.794;2023-07-13T08:58:27;1.58;;;1.48;;
10977;SDS011;5542;48.272;10.794;2023-07-13T09:00:57;2.70;;;1.30;;
10977;SDS011;5542;48.272;10.794;2023-07-13T09:03:31;1.80;;;1.40;;
10977;SDS011;5542;48.272;10.794;2023-07-13T09:06:03;1.27;;;1.20;;
10977;SDS011;5542;48.272;10.794;2023-07-13T09:08:33;1.70;;;1.60;;
10977;SDS011;5542;48.272;10.794;2023-07-13T09:11:10;1.65;;;1.55;;
10977;SDS011;5542;48.272;10.794;2023-07-13T09:13:50;1.63;;;1.52;;
10977;SDS011;5542;48.272;10.794;2023-07-13T09:16:26;2.15;;;2.00;;
10977;SDS011;5542;48.272;10.794;2023-07-13T09:18:54;1.95;;;1.77;;
10977;SDS011;5542;48.272;10.794;2023-07-13T09:21:25;1.90;;;1.80;;
10977;SDS011;5542;48.272;10.794;2023-07-13T09:23:59;3.70;;;1.70;;
10977;SDS011;5542;48.272;10.794;2023-07-13T09:26:28;2.97;;;2.28;;
10977;SDS011;5542;48.272;10.794;2023-07-13T09:28:59;2.00;;;1.90;;
10977;SDS011;5542;48.272;10.794;2023-07-13T09:31:32;2.08;;;1.80;;
10977;SDS011;5542;48.272;10.794;2023-07-13T09:34:03;1.60;;;1.50;;
10977;SDS011;5542;48.272;10.794;2023-07-13T09:36:35;3.25;;;2.00;;
10977;SDS011;5542;48.272;10.794;2023-07-13T09:39:02;2.13;;;1.92;;
10977;SDS011;5542;48.272;10.794;2023-07-13T09:41:33;1.85;;;1.70;;
10977;SDS011;5542;48.272;10.794;2023-07-13T09:44:07;1.45;;;1.40;;
10977;SDS011;5542;48.272;10.794;2023-07-13T09:46:36;2.10;;;2.00;;
10977;SDS011;5542;48.272;10.794;2023-07-13T09:49:05;1.60;;;1.50;;
10977;SDS011;5542;48.272;10.794;2023-07-13T09:51:34;1.60;;;1.50;;
10977;SDS011;5542;48.272;10.794;2023-07-13T09:54:00;2.40;;;2.20;;
10977;SDS011;5542;48.272;10.794;2023-07-13T09:56:27;2.00;;;1.90;;
10977;SDS011;5542;48.272;10.794;2023-07-13T09:58:55;1.70;;;1.60;;
10977;SDS011;5542;48.272;10.794;2023-07-13T10:01:32;1.75;;;1.65;;
10977;SDS011;5542;48.272;10.794;2023-07-13T10:04:01;2.03;;;1.55;;
10977;SDS011;5542;48.272;10.794;2023-07-13T10:06:29;1.85;;;1.58;;
10977;SDS011;5542;48.272;10.794;2023-07-13T10:08:56;1.70;;;1.60;;
10977;SDS011;5542;48.272;10.794;2023-07-13T10:11:23;1.80;;;1.70;;
10977;SDS011;5542;48.272;10.794;2023-07-13T10:13:54;1.48;;;1.38;;
10977;SDS011;5542;48.272;10.794;2023-07-13T10:16:23;2.40;;;1.80;;
10977;SDS011;5542;48.272;10.794;2023-07-13T10:18:51;4.05;;;1.98;;
10977;SDS011;5542;48.272;10.794;2023-07-13T10:21:22;2.27;;;1.77;;
10977;SDS011;5542;48.272;10.794;2023-07-13T10:23:55;2.27;;;1.60;;
10977;SDS011;5542;48.272;10.794;2023-07-13T10:26:27;1.50;;;1.30;;
10977;SDS011;5542;48.272;10.794;2023-07-13T10:28:59;1.58;;;1.48;;
10977;SDS011;5542;48.272;10.794;2023-07-13T10:31:30;2.03;;;1.33;;
10977;SDS011;5542;48.272;10.794;2023-07-13T10:33:57;1.38;;;1.27;;
10977;SDS011;5542;48.272;10.794;2023-07-13T10:36:28;1.67;;;1.58;;
10977;SDS011;5542;48.272;10.794;2023-07-13T10:39:01;1.48;;;1.38;;
10977;SDS011;5542;48.272;10.794;2023-07-13T10:41:31;1.48;;;1.40;;
10977;SDS011;5542;48.272;10.794;2023-07-13T10:44:01;1.70;;;1.60;;
10977;SDS011;5542;48.272;10.794;2023-07-13T10:46:30;1.63;;;1.38;;
10977;SDS011;5542;48.272;10.794;2023-07-13T10:48:58;2.13;;;1.27;;
10977;SDS011;5542;48.272;10.794;2023-07-13T10:51:27;1.10;;;1.10;;
10977;SDS011;5542;48.272;10.794;2023-07-13T10:56:48;1.20;;;1.20;;
10977;SDS011;5542;48.272;10.794;2023-07-13T10:59:18;1.60;;;1.50;;
10977;SDS011;5542;48.272;10.794;2023-07-13T11:01:53;1.60;;;1.50;;
10977;SDS011;5542;48.272;10.794;2023-07-13T11:04:22;1.73;;;1.42;;
10977;SDS011;5542;48.272;10.794;2023-07-13T11:06:52;2.05;;;1.58;;
10977;SDS011;5542;48.272;10.794;2023-07-13T11:09:33;1.93;;;1.60;;
10977;SDS011;5542;48.272;10.794;2023-07-13T11:12:06;1.50;;;1.40;;
10977;SDS011;5542;48.272;10.794;2023-07-13T11:14:41;1.63;;;1.52;;
10977;SDS011;5542;48.272;10.794;2023-07-13T11:17:24;1.40;;;1.30;;
10977;SDS011;5542;48.272;10.794;2023-07-13T11:20:18;1.60;;;1.35;;
10977;SDS011;5542;48.272;10.794;2023-07-13T11:23:07;1.40;;;1.30;;
10977;SDS011;5542;48.272;10.794;2023-07-13T11:25:50;2.00;;;1.73;;
10977;SDS011;5542;48.272;10.794;2023-07-13T11:28:17;1.33;;;1.20;;
10977;SDS011;5542;48.272;10.794;2023-07-13T11:30:49;1.45;;;1.30;;
10977;SDS011;5542;48.272;10.794;2023-07-13T11:33:27;1.40;;;1.30;;
10977;SDS011;5542;48.272;10.794;2023-07-13T11:36:12;1.48;;;1.35;;
10977;SDS011;5542;48.272;10.794;2023-07-13T11:38:40;1.50;;;1.40;;
10977;SDS011;5542;48.272;10.794;2023-07-13T11:41:14;1.70;;;1.58;;
10977;SDS011;5542;48.272;10.794;2023-07-13T11:43:43;1.30;;;1.20;;
10977;SDS011;5542;48.272;10.794;2023-07-13T11:46:14;1.88;;;1.48;;
10977;SDS011;5542;48.272;10.794;2023-07-13T11:48:42;1.38;;;1.27;;
10977;SDS011;5542;48.272;10.794;2023-07-13T11:51:15;1.50;;;1.40;;
10977;SDS011;5542;48.272;10.794;2023-07-13T11:53:46;1.80;;;1.60;;
10977;SDS011;5542;48.272;10.794;2023-07-13T11:56:16;2.42;;;1.73;;
10977;SDS011;5542;48.272;10.794;2023-07-13T11:58:43;3.42;;;1.45;;
10977;SDS011;5542;48.272;10.794;2023-07-13T12:01:15;1.65;;;1.55;;
10977;SDS011;5542;48.272;10.794;2023-07-13T12:03:46;1.98;;;1.45;;
10977;SDS011;5542;48.272;10.794;2023-07-13T12:06:21;1.40;;;1.30;;
10977;SDS011;5542;48.272;10.794;2023-07-13T12:08:55;1.80;;;1.70;;
10977;SDS011;5542;48.272;10.794;2023-07-13T12:11:23;2.08;;;1.42;;
10977;SDS011;5542;48.272;10.794;2023-07-13T12:13:50;2.47;;;1.35;;
10977;SDS011;5542;48.272;10.794;2023-07-13T12:16:17;1.90;;;1.47;;
10977;SDS011;5542;48.272;10.794;2023-07-13T12:18:52;2.33;;;1.55;;
10977;SDS011;5542;48.272;10.794;2023-07-13T12:21:19;1.15;;;1.15;;
10977;SDS011;5542;48.272;10.794;2023-07-13T12:23:49;1.70;;;1.60;;
10977;SDS011;5542;48.272;10.794;2023-07-13T12:26:17;1.63;;;1.50;;
10977;SDS011;5542;48.272;10.794;2023-07-13T12:28:46;1.55;;;1.25;;
10977;SDS011;5542;48.272;10.794;2023-07-13T12:31:26;1.50;;;1.40;;
10977;SDS011;5542;48.272;10.794;2023-07-13T12:33:58;5.35;;;1.75;;
10977;SDS011;5542;48.272;10.794;2023-07-13T12:36:29;2.92;;;1.80;;
10977;SDS011;5542;48.272;10.794;2023-07-13T12:38:57;1.63;;;1.52;;
10977;SDS011;5542;48.272;10.794;2023-07-13T12:41:38;1.80;;;1.50;;
10977;SDS011;5542;48.272;10.794;2023-07-13T12:44:08;1.60;;;1.50;;
10977;SDS011;5542;48.272;10.794;2023-07-13T12:46:37;1.80;;;1.70;;
10977;SDS011;5542;48.272;10.794;2023-07-13T12:49:05;2.45;;;1.50;;
10977;SDS011;5542;48.272;10.794;2023-07-13T12:51:33;2.53;;;1.80;;
10977;SDS011;5542;48.272;10.794;2023-07-13T12:54:05;2.10;;;1.83;;
10977;SDS011;5542;48.272;10.794;2023-07-13T12:56:39;2.70;;;1.80;;
10977;SDS011;5542;48.272;10.794;2023-07-13T12:59:05;2.03;;;1.48;;
10977;SDS011;5542;48.272;10.794;2023-07-13T13:01:42;3.22;;;1.40;;
10977;SDS011;5542;48.272;10.794;2023-07-13T13:04:08;1.67;;;1.33;;
10977;SDS011;5542;48.272;10.794;2023-07-13T13:06:36;1.80;;;1.42;;
10977;SDS011;5542;48.272;10.794;2023-07-13T13:09:05;1.50;;;1.10;;
10977;SDS011;5542;48.272;10.794;2023-07-13T13:11:38;1.52;;;1.33;;
10977;SDS011;5542;48.272;10.794;2023-07-13T13:14:05;1.80;;;1.70;;
10977;SDS011;5542;48.272;10.794;2023-07-13T13:16:34;3.10;;;1.50;;
10977;SDS011;5542;48.272;10.794;2023-07-13T13:19:05;1.40;;;1.30;;
10977;SDS011;5542;48.272;10.794;2023-07-13T13:21:39;3.05;;;1.80;;
10977;SDS011;5542;48.272;10.794;2023-07-13T13:24:09;1.50;;;1.40;;
10977;SDS011;5542;48.272;10.794;2023-07-13T13:26:37;1.80;;;1.70;;
10977;SDS011;5542;48.272;10.794;2023-07-13T13:29:04;1.70;;;1.60;;
10977;SDS011;5542;48.272;10.794;2023-07-13T13:31:40;1.40;;;1.30;;
10977;SDS011;5542;48.272;10.794;2023-07-13T13:34:07;1.48;;;1.40;;
10977;SDS011;5542;48.272;10.794;2023-07-13T13:36:35;1.40;;;1.30;;
10977;SDS011;5542;48.272;10.794;2023-07-13T13:39:02;1.35;;;1.35;;
10977;SDS011;5542;48.272;10.794;2023-07-13T13:41:31;1.83;;;1.50;;
10977;SDS011;5542;48.272;10.794;2023-07-13T13:43:58;1.77;;;1.63;;
10977;SDS011;5542;48.272;10.794;2023-07-13T13:46:24;1.30;;;1.20;;
10977;SDS011;5542;48.272;10.794;2023-07-13T13:48:55;1.55;;;1.40;;
10977;SDS011;5542;48.272;10.794;2023-07-13T13:51:22;1.85;;;1.75;;
10977;SDS011;5542;48.272;10.794;2023-07-13T13:53:50;1.60;;;1.50;;
10977;SDS011;5542;48.272;10.794;2023-07-13T13:56:18;1.60;;;1.50;;
10977;SDS011;5542;48.272;10.794;2023-07-13T13:58:46;2.07;;;1.90;;
10977;SDS011;5542;48.272;10.794;2023-07-13T14:01:13;2.70;;;2.50;;
10977;SDS011;5542;48.272;10.794;2023-07-13T14:03:43;2.75;;;2.15;;
10977;SDS011;5542;48.272;10.794;2023-07-13T14:06:12;1.50;;;1.40;;
10977;SDS011;5542;48.272;10.794;2023-07-13T14:08:40;2.20;;;1.90;;
10977;SDS011;5542;48.272;10.794;2023-07-13T14:11:07;2.13;;;1.63;;
10977;SDS011;5542;48.272;10.794;2023-07-13T14:13:38;2.83;;;1.80;;
10977;SDS011;5542;48.272;10.794;2023-07-13T14:16:09;1.70;;;1.60;;
10977;SDS011;5542;48.272;10.794;2023-07-13T14:18:38;1.75;;;1.65;;
10977;SDS011;5542;48.272;10.794;2023-07-13T14:21:08;1.50;;;1.40;;
10977;SDS011;5542;48.272;10.794;2023-07-13T14:23:38;1.60;;;1.50;;
10977;SDS011;5542;48.272;10.794;2023-07-13T14:26:07;1.80;;;1.70;;
10977;SDS011;5542;48.272;10.794;2023-07-13T14:28:37;1.90;;;1.77;;
10977;SDS011;5542;48.272;10.794;2023-07-13T14:31:07;1.77;;;1.67;;
10977;SDS011;5542;48.272;10.794;2023-07-13T14:33:34;2.90;;;2.17;;
10977;SDS011;5542;48.272;10.794;2023-07-13T14:36:01;2.00;;;1.90;;
10977;SDS011;5542;48.272;10.794;2023-07-13T14:38:28;1.60;;;1.50;;
10977;SDS011;5542;48.272;10.794;2023-07-13T14:40:56;1.50;;;1.40;;
10977;SDS011;5542;48.272;10.794;2023-07-13T14:43:22;1.45;;;1.35;;
10977;SDS011;5542;48.272;10.794;2023-07-13T14:45:50;1.33;;;1.23;;
10977;SDS011;5542;48.272;10.794;2023-07-13T14:48:19;1.25;;;1.25;;
10977;SDS011;5542;48.272;10.794;2023-07-13T14:50:49;1.10;;;1.10;;
10977;SDS011;5542;48.272;10.794;2023-07-13T14:53:19;1.25;;;0.93;;
10977;SDS011;5542;48.272;10.794;2023-07-13T14:55:45;2.00;;;1.73;;
10977;SDS011;5542;48.272;10.794;2023-07-13T14:58:13;3.45;;;3.08;;
10977;SDS011;5542;48.272;10.794;2023-07-13T15:00:40;3.53;;;3.22;;